sensor_id;sensor_type;location;lat;lon;timestamp;temperature;humidity
55642;DHT22;41509;53.108;6.100;2023-01-16T00:01:24;4.90;99.90
55642;DHT22;41509;53.108;6.100;2023-01-16T00:03:50;4.90;99.90
55642;DHT22;41509;53.108;6.100;2023-01-16T00:06:16;4.90;99.90
55642;DHT22;41509;53.108;6.100;2023-01-16T00:08:42;4.90;99.90
55642;DHT22;41509;53.108;6.100;2023-01-16T00:11:09;4.90;99.90
55642;DHT22;41509;53.108;6.100;2023-01-16T00:13:35;4.90;99.90
55642;DHT22;41509;53.108;6.100;2023-01-16T00:16:01;4.90;99.90
55642;DHT22;41509;53.108;6.100;2023-01-16T00:18:26;4.90;99.90
55642;DHT22;41509;53.108;6.100;2023-01-16T00:20:52;4.80;99.90
55642;DHT22;41509;53.108;6.100;2023-01-16T00:23:18;4.80;99.90
55642;DHT22;41509;53.108;6.100;2023-01-16T00:25:44;4.90;99.90
55642;DHT22;41509;53.108;6.100;2023-01-16T00:28:11;4.90;99.90
55642;DHT22;41509;53.108;6.100;2023-01-16T00:30:38;4.80;99.90
55642;DHT22;41509;53.108;6.100;2023-01-16T00:33:04;4.90;99.90
55642;DHT22;41509;53.108;6.100;2023-01-16T00:35:30;4.90;99.90
55642;DHT22;41509;53.108;6.100;2023-01-16T00:37:56;4.90;99.90
55642;DHT22;41509;53.108;6.100;2023-01-16T00:40:22;4.80;99.90
55642;DHT22;41509;53.108;6.100;2023-01-16T00:42:48;4.80;99.90
55642;DHT22;41509;53.108;6.100;2023-01-16T00:45:14;4.80;99.90
55642;DHT22;41509;53.108;6.100;2023-01-16T00:47:39;4.80;99.90
55642;DHT22;41509;53.108;6.100;2023-01-16T00:50:05;4.80;99.90
55642;DHT22;41509;53.108;6.100;2023-01-16T00:52:31;4.80;99.90
55642;DHT22;41509;53.108;6.100;2023-01-16T00:54:57;4.70;99.90
55642;DHT22;41509;53.108;6.100;2023-01-16T00:57:22;4.70;99.90
55642;DHT22;41509;53.108;6.100;2023-01-16T00:59:48;4.70;99.90
55642;DHT22;41509;53.108;6.100;2023-01-16T01:02:16;4.70;99.90
55642;DHT22;41509;53.108;6.100;2023-01-16T01:04:42;4.70;99.90
55642;DHT22;41509;53.108;6.100;2023-01-16T01:07:08;4.70;99.90
55642;DHT22;41509;53.108;6.100;2023-01-16T01:09:35;4.70;99.90
55642;DHT22;41509;53.108;6.100;2023-01-16T01:12:00;4.70;99.90
55642;DHT22;41509;53.108;6.100;2023-01-16T01:14:26;4.70;99.90
55642;DHT22;41509;53.108;6.100;2023-01-16T01:16:52;4.70;99.90
55642;DHT22;41509;53.108;6.100;2023-01-16T01:19:17;4.60;99.90
55642;DHT22;41509;53.108;6.100;2023-01-16T01:21:43;4.60;99.90
55642;DHT22;41509;53.108;6.100;2023-01-16T01:24:09;4.70;99.90
55642;DHT22;41509;53.108;6.100;2023-01-16T01:26:35;4.60;99.90
55642;DHT22;41509;53.108;6.100;2023-01-16T01:29:01;4.60;99.90
55642;DHT22;41509;53.108;6.100;2023-01-16T01:31:27;4.60;99.90
55642;DHT22;41509;53.108;6.100;2023-01-16T01:33:53;4.60;99.90
55642;DHT22;41509;53.108;6.100;2023-01-16T01:36:18;4.60;99.90
55642;DHT22;41509;53.108;6.100;2023-01-16T01:38:44;4.60;99.90
55642;DHT22;41509;53.108;6.100;2023-01-16T01:41:15;4.60;99.90
55642;DHT22;41509;53.108;6.100;2023-01-16T01:43:52;4.60;99.90
55642;DHT22;41509;53.108;6.100;2023-01-16T01:46:23;4.60;99.90
55642;DHT22;41509;53.108;6.100;2023-01-16T01:48:54;4.60;99.90
55642;DHT22;41509;53.108;6.100;2023-01-16T01:51:41;4.60;99.90
55642;DHT22;41509;53.108;6.100;2023-01-16T01:54:12;4.50;99.90
55642;DHT22;41509;53.108;6.100;2023-01-16T01:56:47;4.50;99.90
55642;DHT22;41509;53.108;6.100;2023-01-16T01:59:17;4.50;99.90
55642;DHT22;41509;53.108;6.100;2023-01-16T02:01:46;4.40;99.90
55642;DHT22;41509;53.108;6.100;2023-01-16T02:04:24;4.40;99.90
55642;DHT22;41509;53.108;6.100;2023-01-16T02:06:55;4.30;99.90
55642;DHT22;41509;53.108;6.100;2023-01-16T02:09:23;4.30;99.90
55642;DHT22;41509;53.108;6.100;2023-01-16T02:11:50;4.20;99.90
55642;DHT22;41509;53.108;6.100;2023-01-16T02:14:18;4.20;99.90
55642;DHT22;41509;53.108;6.100;2023-01-16T02:16:45;4.20;99.90
55642;DHT22;41509;53.108;6.100;2023-01-16T02:19:55;4.10;99.90
55642;DHT22;41509;53.108;6.100;2023-01-16T02:34:48;4.10;99.90
55642;DHT22;41509;53.108;6.100;2023-01-16T02:37:43;4.10;99.90
55642;DHT22;41509;53.108;6.100;2023-01-16T02:45:48;4.10;99.90
55642;DHT22;41509;53.108;6.100;2023-01-16T02:51:26;4.20;99.90
55642;DHT22;41509;53.108;6.100;2023-01-16T02:56:30;4.20;99.90
55642;DHT22;41509;53.108;6.100;2023-01-16T02:58:58;4.20;99.90
55642;DHT22;41509;53.108;6.100;2023-01-16T03:01:23;4.20;99.90
55642;DHT22;41509;53.108;6.100;2023-01-16T03:06:44;4.30;99.90
55642;DHT22;41509;53.108;6.100;2023-01-16T03:09:22;4.30;99.90
55642;DHT22;41509;53.108;6.100;2023-01-16T03:29:30;4.40;99.90
55642;DHT22;41509;53.108;6.100;2023-01-16T03:31:41;4.30;99.90
55642;DHT22;41509;53.108;6.100;2023-01-16T03:37:14;4.30;99.90
55642;DHT22;41509;53.108;6.100;2023-01-16T03:39:48;4.30;99.90
55642;DHT22;41509;53.108;6.100;2023-01-16T03:42:25;4.30;99.90
55642;DHT22;41509;53.108;6.100;2023-01-16T03:44:57;4.40;99.90
55642;DHT22;41509;53.108;6.100;2023-01-16T03:47:31;4.40;99.90
55642;DHT22;41509;53.108;6.100;2023-01-16T03:50:02;4.40;99.90
55642;DHT22;41509;53.108;6.100;2023-01-16T03:52:36;4.40;99.90
55642;DHT22;41509;53.108;6.100;2023-01-16T03:55:19;4.40;99.90
55642;DHT22;41509;53.108;6.100;2023-01-16T03:57:55;4.40;99.90
55642;DHT22;41509;53.108;6.100;2023-01-16T04:00:25;4.40;99.90
55642;DHT22;41509;53.108;6.100;2023-01-16T04:03:14;4.40;99.90
55642;DHT22;41509;53.108;6.100;2023-01-16T04:05:50;4.40;99.90
55642;DHT22;41509;53.108;6.100;2023-01-16T04:08:19;4.40;99.90
55642;DHT22;41509;53.108;6.100;2023-01-16T04:10:47;4.40;99.90
55642;DHT22;41509;53.108;6.100;2023-01-16T04:13:18;4.50;99.90
55642;DHT22;41509;53.108;6.100;2023-01-16T04:15:48;4.40;99.90
55642;DHT22;41509;53.108;6.100;2023-01-16T04:18:15;4.50;99.90
55642;DHT22;41509;53.108;6.100;2023-01-16T04:20:44;4.50;99.90
55642;DHT22;41509;53.108;6.100;2023-01-16T04:23:12;4.50;99.90
55642;DHT22;41509;53.108;6.100;2023-01-16T04:25:38;4.50;99.90
55642;DHT22;41509;53.108;6.100;2023-01-16T04:28:04;4.50;99.90
55642;DHT22;41509;53.108;6.100;2023-01-16T04:30:29;4.60;99.90
55642;DHT22;41509;53.108;6.100;2023-01-16T04:32:55;4.60;99.90
55642;DHT22;41509;53.108;6.100;2023-01-16T04:35:21;4.60;99.90
55642;DHT22;41509;53.108;6.100;2023-01-16T04:37:47;4.60;99.90
55642;DHT22;41509;53.108;6.100;2023-01-16T04:40:12;4.60;99.90
55642;DHT22;41509;53.108;6.100;2023-01-16T04:42:38;4.60;99.90
55642;DHT22;41509;53.108;6.100;2023-01-16T04:45:04;4.60;99.90
55642;DHT22;41509;53.108;6.100;2023-01-16T04:47:30;4.70;99.90
55642;DHT22;41509;53.108;6.100;2023-01-16T04:49:55;4.60;99.90
55642;DHT22;41509;53.108;6.100;2023-01-16T04:52:21;4.70;99.90
55642;DHT22;41509;53.108;6.100;2023-01-16T04:54:46;4.60;99.90
55642;DHT22;41509;53.108;6.100;2023-01-16T04:57:12;4.70;99.90
55642;DHT22;41509;53.108;6.100;2023-01-16T04:59:38;4.70;99.90
55642;DHT22;41509;53.108;6.100;2023-01-16T05:02:03;4.70;99.90
55642;DHT22;41509;53.108;6.100;2023-01-16T05:04:29;4.60;99.90
55642;DHT22;41509;53.108;6.100;2023-01-16T05:06:54;4.60;99.90
55642;DHT22;41509;53.108;6.100;2023-01-16T05:09:20;4.60;99.90
55642;DHT22;41509;53.108;6.100;2023-01-16T05:11:46;4.60;99.90
55642;DHT22;41509;53.108;6.100;2023-01-16T05:14:11;4.60;99.90
55642;DHT22;41509;53.108;6.100;2023-01-16T05:16:38;4.50;99.90
55642;DHT22;41509;53.108;6.100;2023-01-16T05:19:06;4.50;99.90
55642;DHT22;41509;53.108;6.100;2023-01-16T05:21:31;4.50;99.90
55642;DHT22;41509;53.108;6.100;2023-01-16T05:23:57;4.40;99.90
55642;DHT22;41509;53.108;6.100;2023-01-16T05:26:23;4.40;99.90
55642;DHT22;41509;53.108;6.100;2023-01-16T05:28:49;4.30;99.90
55642;DHT22;41509;53.108;6.100;2023-01-16T05:31:14;4.30;99.90
55642;DHT22;41509;53.108;6.100;2023-01-16T05:33:40;4.30;99.90
55642;DHT22;41509;53.108;6.100;2023-01-16T05:36:06;4.30;99.90
55642;DHT22;41509;53.108;6.100;2023-01-16T05:38:32;4.20;99.90
55642;DHT22;41509;53.108;6.100;2023-01-16T05:40:58;4.30;99.90
55642;DHT22;41509;53.108;6.100;2023-01-16T05:43:24;4.30;99.90
55642;DHT22;41509;53.108;6.100;2023-01-16T05:45:50;4.20;99.90
55642;DHT22;41509;53.108;6.100;2023-01-16T05:48:16;4.20;99.90
55642;DHT22;41509;53.108;6.100;2023-01-16T05:50:41;4.30;99.90
55642;DHT22;41509;53.108;6.100;2023-01-16T05:53:07;4.30;99.90
55642;DHT22;41509;53.108;6.100;2023-01-16T05:55:41;4.30;99.90
55642;DHT22;41509;53.108;6.100;2023-01-16T05:58:09;4.30;99.90
55642;DHT22;41509;53.108;6.100;2023-01-16T06:00:36;4.30;99.90
55642;DHT22;41509;53.108;6.100;2023-01-16T06:03:01;4.30;99.90
55642;DHT22;41509;53.108;6.100;2023-01-16T06:05:27;4.30;99.90
55642;DHT22;41509;53.108;6.100;2023-01-16T06:07:56;4.20;99.90
55642;DHT22;41509;53.108;6.100;2023-01-16T06:10:23;4.20;99.90
55642;DHT22;41509;53.108;6.100;2023-01-16T06:12:48;4.20;99.90
55642;DHT22;41509;53.108;6.100;2023-01-16T06:15:14;4.20;99.90
55642;DHT22;41509;53.108;6.100;2023-01-16T06:17:40;4.30;99.90
55642;DHT22;41509;53.108;6.100;2023-01-16T06:20:06;4.30;99.90
55642;DHT22;41509;53.108;6.100;2023-01-16T06:22:32;4.30;99.90
55642;DHT22;41509;53.108;6.100;2023-01-16T06:24:57;4.30;99.90
55642;DHT22;41509;53.108;6.100;2023-01-16T06:27:23;4.30;99.90
55642;DHT22;41509;53.108;6.100;2023-01-16T06:29:49;4.30;99.90
55642;DHT22;41509;53.108;6.100;2023-01-16T06:32:14;4.20;99.90
55642;DHT22;41509;53.108;6.100;2023-01-16T06:34:42;4.20;99.90
55642;DHT22;41509;53.108;6.100;2023-01-16T06:37:08;4.20;99.90
55642;DHT22;41509;53.108;6.100;2023-01-16T06:39:33;4.20;99.90
55642;DHT22;41509;53.108;6.100;2023-01-16T06:41:59;4.10;99.90
55642;DHT22;41509;53.108;6.100;2023-01-16T06:44:25;4.10;99.90
55642;DHT22;41509;53.108;6.100;2023-01-16T06:46:51;4.10;99.90
55642;DHT22;41509;53.108;6.100;2023-01-16T06:49:17;4.10;99.90
55642;DHT22;41509;53.108;6.100;2023-01-16T06:51:42;4.00;99.90
55642;DHT22;41509;53.108;6.100;2023-01-16T06:54:09;4.00;99.90
55642;DHT22;41509;53.108;6.100;2023-01-16T06:56:35;4.00;99.90
55642;DHT22;41509;53.108;6.100;2023-01-16T06:59:01;4.00;99.90
55642;DHT22;41509;53.108;6.100;2023-01-16T07:01:26;4.00;99.90
55642;DHT22;41509;53.108;6.100;2023-01-16T07:03:52;4.00;99.90
55642;DHT22;41509;53.108;6.100;2023-01-16T07:06:18;4.00;99.90
55642;DHT22;41509;53.108;6.100;2023-01-16T07:08:43;3.90;99.90
55642;DHT22;41509;53.108;6.100;2023-01-16T07:11:09;3.90;99.90
55642;DHT22;41509;53.108;6.100;2023-01-16T07:13:35;3.90;99.90
55642;DHT22;41509;53.108;6.100;2023-01-16T07:16:00;3.90;99.90
55642;DHT22;41509;53.108;6.100;2023-01-16T07:18:44;3.90;99.90
55642;DHT22;41509;53.108;6.100;2023-01-16T07:21:23;3.80;99.90
55642;DHT22;41509;53.108;6.100;2023-01-16T07:24:10;3.80;99.90
55642;DHT22;41509;53.108;6.100;2023-01-16T07:26:40;3.80;99.90
55642;DHT22;41509;53.108;6.100;2023-01-16T07:29:07;3.80;99.90
55642;DHT22;41509;53.108;6.100;2023-01-16T07:31:33;3.80;99.90
55642;DHT22;41509;53.108;6.100;2023-01-16T07:33:59;3.80;99.90
55642;DHT22;41509;53.108;6.100;2023-01-16T07:36:25;3.80;99.90
55642;DHT22;41509;53.108;6.100;2023-01-16T07:38:50;3.80;99.90
55642;DHT22;41509;53.108;6.100;2023-01-16T07:41:16;3.80;99.90
55642;DHT22;41509;53.108;6.100;2023-01-16T07:43:42;3.80;99.90
55642;DHT22;41509;53.108;6.100;2023-01-16T07:46:08;3.70;99.90
55642;DHT22;41509;53.108;6.100;2023-01-16T07:48:34;3.70;99.90
55642;DHT22;41509;53.108;6.100;2023-01-16T07:50:59;3.70;99.90
55642;DHT22;41509;53.108;6.100;2023-01-16T07:53:28;3.70;99.90
55642;DHT22;41509;53.108;6.100;2023-01-16T07:55:56;3.70;99.90
55642;DHT22;41509;53.108;6.100;2023-01-16T07:58:22;3.70;99.90
55642;DHT22;41509;53.108;6.100;2023-01-16T08:00:49;3.70;99.90
55642;DHT22;41509;53.108;6.100;2023-01-16T08:03:16;3.80;99.90
55642;DHT22;41509;53.108;6.100;2023-01-16T08:05:42;3.80;99.90
55642;DHT22;41509;53.108;6.100;2023-01-16T08:08:09;3.80;99.90
55642;DHT22;41509;53.108;6.100;2023-01-16T08:10:35;3.80;99.90
55642;DHT22;41509;53.108;6.100;2023-01-16T08:13:01;3.80;99.90
55642;DHT22;41509;53.108;6.100;2023-01-16T08:15:26;3.80;99.90
55642;DHT22;41509;53.108;6.100;2023-01-16T08:17:52;3.80;99.90
55642;DHT22;41509;53.108;6.100;2023-01-16T08:20:18;3.80;99.90
55642;DHT22;41509;53.108;6.100;2023-01-16T08:22:49;3.80;99.90
55642;DHT22;41509;53.108;6.100;2023-01-16T08:25:16;3.90;99.90
55642;DHT22;41509;53.108;6.100;2023-01-16T08:27:42;3.90;99.90
55642;DHT22;41509;53.108;6.100;2023-01-16T08:30:09;3.90;99.90
55642;DHT22;41509;53.108;6.100;2023-01-16T08:32:35;3.90;99.90
55642;DHT22;41509;53.108;6.100;2023-01-16T08:35:02;3.90;99.90
55642;DHT22;41509;53.108;6.100;2023-01-16T08:37:32;4.00;99.90
55642;DHT22;41509;53.108;6.100;2023-01-16T08:39:58;4.00;99.90
55642;DHT22;41509;53.108;6.100;2023-01-16T08:42:24;4.00;99.90
55642;DHT22;41509;53.108;6.100;2023-01-16T08:45:12;4.00;99.90
55642;DHT22;41509;53.108;6.100;2023-01-16T08:47:57;4.00;99.90
55642;DHT22;41509;53.108;6.100;2023-01-16T08:50:43;4.10;99.90
55642;DHT22;41509;53.108;6.100;2023-01-16T08:53:28;4.10;99.90
55642;DHT22;41509;53.108;6.100;2023-01-16T08:55:54;4.10;99.90
55642;DHT22;41509;53.108;6.100;2023-01-16T08:58:19;4.10;99.90
55642;DHT22;41509;53.108;6.100;2023-01-16T09:00:49;4.20;99.90
55642;DHT22;41509;53.108;6.100;2023-01-16T09:03:15;4.20;99.90
55642;DHT22;41509;53.108;6.100;2023-01-16T09:05:44;4.20;99.90
55642;DHT22;41509;53.108;6.100;2023-01-16T09:08:10;4.20;99.90
55642;DHT22;41509;53.108;6.100;2023-01-16T09:10:35;4.20;99.90
55642;DHT22;41509;53.108;6.100;2023-01-16T09:13:02;4.20;99.90
55642;DHT22;41509;53.108;6.100;2023-01-16T09:15:46;4.20;99.90
55642;DHT22;41509;53.108;6.100;2023-01-16T09:18:12;4.30;99.90
55642;DHT22;41509;53.108;6.100;2023-01-16T09:20:38;4.30;99.90
55642;DHT22;41509;53.108;6.100;2023-01-16T09:23:04;4.30;99.90
55642;DHT22;41509;53.108;6.100;2023-01-16T09:25:31;4.30;99.90
55642;DHT22;41509;53.108;6.100;2023-01-16T09:27:58;4.40;99.90
55642;DHT22;41509;53.108;6.100;2023-01-16T09:30:24;4.40;99.90
55642;DHT22;41509;53.108;6.100;2023-01-16T09:32:49;4.40;99.90
55642;DHT22;41509;53.108;6.100;2023-01-16T09:35:15;4.40;99.90
55642;DHT22;41509;53.108;6.100;2023-01-16T09:37:45;4.40;99.90
55642;DHT22;41509;53.108;6.100;2023-01-16T09:40:16;4.40;99.90
55642;DHT22;41509;53.108;6.100;2023-01-16T09:45:43;4.50;99.90
55642;DHT22;41509;53.108;6.100;2023-01-16T09:48:15;4.50;99.90
55642;DHT22;41509;53.108;6.100;2023-01-16T09:50:51;4.50;99.90
55642;DHT22;41509;53.108;6.100;2023-01-16T09:53:43;4.50;99.90
55642;DHT22;41509;53.108;6.100;2023-01-16T09:56:34;4.50;99.90
55642;DHT22;41509;53.108;6.100;2023-01-16T09:59:22;4.50;99.90
55642;DHT22;41509;53.108;6.100;2023-01-16T10:04:42;4.50;99.90
55642;DHT22;41509;53.108;6.100;2023-01-16T10:07:30;4.50;99.90
55642;DHT22;41509;53.108;6.100;2023-01-16T10:12:34;4.50;99.90
55642;DHT22;41509;53.108;6.100;2023-01-16T10:26:30;4.50;99.90
55642;DHT22;41509;53.108;6.100;2023-01-16T10:35:04;4.60;99.90
55642;DHT22;41509;53.108;6.100;2023-01-16T10:37:33;4.70;99.90
55642;DHT22;41509;53.108;6.100;2023-01-16T10:40:41;4.70;99.90
55642;DHT22;41509;53.108;6.100;2023-01-16T10:43:06;4.60;99.90
55642;DHT22;41509;53.108;6.100;2023-01-16T10:45:55;4.60;99.90
55642;DHT22;41509;53.108;6.100;2023-01-16T10:48:41;4.60;99.90
55642;DHT22;41509;53.108;6.100;2023-01-16T10:51:25;4.60;99.90
55642;DHT22;41509;53.108;6.100;2023-01-16T10:53:51;4.50;99.90
55642;DHT22;41509;53.108;6.100;2023-01-16T10:56:17;4.50;99.90
55642;DHT22;41509;53.108;6.100;2023-01-16T10:58:43;4.50;99.90
55642;DHT22;41509;53.108;6.100;2023-01-16T11:01:15;4.50;99.90
55642;DHT22;41509;53.108;6.100;2023-01-16T11:03:47;4.40;99.90
55642;DHT22;41509;53.108;6.100;2023-01-16T11:06:27;4.40;99.90
55642;DHT22;41509;53.108;6.100;2023-01-16T11:09:03;4.40;99.90
55642;DHT22;41509;53.108;6.100;2023-01-16T11:11:30;4.40;99.90
55642;DHT22;41509;53.108;6.100;2023-01-16T11:14:18;4.30;99.90
55642;DHT22;41509;53.108;6.100;2023-01-16T11:17:34;4.30;99.90
55642;DHT22;41509;53.108;6.100;2023-01-16T11:20:32;4.20;99.90
55642;DHT22;41509;53.108;6.100;2023-01-16T11:23:05;4.20;99.90
55642;DHT22;41509;53.108;6.100;2023-01-16T11:25:38;4.20;99.90
55642;DHT22;41509;53.108;6.100;2023-01-16T11:28:07;4.20;99.90
55642;DHT22;41509;53.108;6.100;2023-01-16T11:30:38;4.20;99.90
55642;DHT22;41509;53.108;6.100;2023-01-16T11:33:13;4.10;99.90
55642;DHT22;41509;53.108;6.100;2023-01-16T11:35:44;4.10;99.90
55642;DHT22;41509;53.108;6.100;2023-01-16T11:38:13;4.10;99.90
55642;DHT22;41509;53.108;6.100;2023-01-16T11:40:45;4.10;99.90
55642;DHT22;41509;53.108;6.100;2023-01-16T11:43:32;4.10;99.90
55642;DHT22;41509;53.108;6.100;2023-01-16T11:46:28;4.10;99.90
55642;DHT22;41509;53.108;6.100;2023-01-16T11:49:17;4.10;99.90
55642;DHT22;41509;53.108;6.100;2023-01-16T11:51:43;4.10;99.90
55642;DHT22;41509;53.108;6.100;2023-01-16T11:54:16;4.10;99.90
55642;DHT22;41509;53.108;6.100;2023-01-16T12:15:19;4.10;99.90
55642;DHT22;41509;53.108;6.100;2023-01-16T12:21:03;4.10;99.90
55642;DHT22;41509;53.108;6.100;2023-01-16T12:37:41;4.10;99.90
55642;DHT22;41509;53.108;6.100;2023-01-16T12:46:02;4.20;99.90
55642;DHT22;41509;53.108;6.100;2023-01-16T13:05:16;4.30;99.90
55642;DHT22;41509;53.108;6.100;2023-01-16T13:07:54;4.30;99.90
55642;DHT22;41509;53.108;6.100;2023-01-16T13:10:31;4.40;99.90
55642;DHT22;41509;53.108;6.100;2023-01-16T13:13:39;4.40;99.90
55642;DHT22;41509;53.108;6.100;2023-01-16T13:16:29;4.40;99.90
55642;DHT22;41509;53.108;6.100;2023-01-16T13:19:01;4.40;99.90
55642;DHT22;41509;53.108;6.100;2023-01-16T13:21:33;4.40;99.90
55642;DHT22;41509;53.108;6.100;2023-01-16T13:24:17;4.40;99.90
55642;DHT22;41509;53.108;6.100;2023-01-16T13:26:52;4.40;99.90
55642;DHT22;41509;53.108;6.100;2023-01-16T13:29:53;4.50;99.90
55642;DHT22;41509;53.108;6.100;2023-01-16T13:35:11;4.50;99.90
55642;DHT22;41509;53.108;6.100;2023-01-16T13:37:54;4.50;99.90
55642;DHT22;41509;53.108;6.100;2023-01-16T13:41:24;4.60;99.90
55642;DHT22;41509;53.108;6.100;2023-01-16T13:43:29;4.60;99.90
55642;DHT22;41509;53.108;6.100;2023-01-16T13:46:15;4.60;99.90
55642;DHT22;41509;53.108;6.100;2023-01-16T13:48:41;4.60;99.90
55642;DHT22;41509;53.108;6.100;2023-01-16T13:51:22;4.60;99.90
55642;DHT22;41509;53.108;6.100;2023-01-16T13:53:54;4.60;99.90
55642;DHT22;41509;53.108;6.100;2023-01-16T13:56:23;4.60;99.90
55642;DHT22;41509;53.108;6.100;2023-01-16T13:59:00;4.70;99.90
55642;DHT22;41509;53.108;6.100;2023-01-16T14:06:51;4.70;99.90
55642;DHT22;41509;53.108;6.100;2023-01-16T14:10:15;4.70;99.90
55642;DHT22;41509;53.108;6.100;2023-01-16T14:12:59;4.70;99.90
55642;DHT22;41509;53.108;6.100;2023-01-16T14:15:25;4.70;99.90
55642;DHT22;41509;53.108;6.100;2023-01-16T14:21:19;4.70;99.90
55642;DHT22;41509;53.108;6.100;2023-01-16T14:23:54;4.70;99.90
55642;DHT22;41509;53.108;6.100;2023-01-16T14:28:54;4.70;99.90
55642;DHT22;41509;53.108;6.100;2023-01-16T14:31:23;4.70;99.90
55642;DHT22;41509;53.108;6.100;2023-01-16T14:33:50;4.70;99.90
55642;DHT22;41509;53.108;6.100;2023-01-16T14:36:21;4.80;99.90
55642;DHT22;41509;53.108;6.100;2023-01-16T14:38:48;4.80;99.90
55642;DHT22;41509;53.108;6.100;2023-01-16T14:41:17;4.80;99.90
55642;DHT22;41509;53.108;6.100;2023-01-16T14:52:45;4.80;99.90
55642;DHT22;41509;53.108;6.100;2023-01-16T14:56:07;4.80;99.90
55642;DHT22;41509;53.108;6.100;2023-01-16T14:58:48;4.80;99.90
55642;DHT22;41509;53.108;6.100;2023-01-16T15:01:27;4.80;99.90
55642;DHT22;41509;53.108;6.100;2023-01-16T15:04:14;4.80;99.90
55642;DHT22;41509;53.108;6.100;2023-01-16T15:06:44;4.90;99.90
55642;DHT22;41509;53.108;6.100;2023-01-16T15:09:16;4.90;99.90
55642;DHT22;41509;53.108;6.100;2023-01-16T15:11:57;4.90;99.90
55642;DHT22;41509;53.108;6.100;2023-01-16T15:14:23;4.90;99.90
55642;DHT22;41509;53.108;6.100;2023-01-16T15:23:29;4.90;99.90
55642;DHT22;41509;53.108;6.100;2023-01-16T15:31:09;4.90;99.90
55642;DHT22;41509;53.108;6.100;2023-01-16T15:33:35;4.90;99.90
55642;DHT22;41509;53.108;6.100;2023-01-16T15:36:26;4.90;99.90
55642;DHT22;41509;53.108;6.100;2023-01-16T15:38:54;4.90;99.90
55642;DHT22;41509;53.108;6.100;2023-01-16T15:41:32;5.00;99.90
55642;DHT22;41509;53.108;6.100;2023-01-16T15:44:20;4.90;99.90
55642;DHT22;41509;53.108;6.100;2023-01-16T15:52:30;4.90;99.90
55642;DHT22;41509;53.108;6.100;2023-01-16T15:54:57;4.90;99.90
55642;DHT22;41509;53.108;6.100;2023-01-16T15:57:24;4.90;99.90
55642;DHT22;41509;53.108;6.100;2023-01-16T15:59:52;4.90;99.90
55642;DHT22;41509;53.108;6.100;2023-01-16T16:02:22;4.90;99.90
55642;DHT22;41509;53.108;6.100;2023-01-16T16:04:51;5.00;99.90
55642;DHT22;41509;53.108;6.100;2023-01-16T16:07:18;4.90;99.90
55642;DHT22;41509;53.108;6.100;2023-01-16T16:09:46;4.90;99.90
55642;DHT22;41509;53.108;6.100;2023-01-16T16:12:12;5.00;99.90
55642;DHT22;41509;53.108;6.100;2023-01-16T16:14:38;4.90;99.90
55642;DHT22;41509;53.108;6.100;2023-01-16T16:17:27;5.00;99.90
55642;DHT22;41509;53.108;6.100;2023-01-16T16:20:38;4.90;99.90
55642;DHT22;41509;53.108;6.100;2023-01-16T16:26:00;4.90;99.90
55642;DHT22;41509;53.108;6.100;2023-01-16T16:31:06;5.00;99.90
55642;DHT22;41509;53.108;6.100;2023-01-16T16:33:37;5.00;99.90
55642;DHT22;41509;53.108;6.100;2023-01-16T16:36:03;5.00;99.90
55642;DHT22;41509;53.108;6.100;2023-01-16T16:48:53;5.00;99.90
55642;DHT22;41509;53.108;6.100;2023-01-16T16:51:31;5.00;99.90
55642;DHT22;41509;53.108;6.100;2023-01-16T16:54:05;5.00;99.90
55642;DHT22;41509;53.108;6.100;2023-01-16T16:56:34;5.00;99.90
55642;DHT22;41509;53.108;6.100;2023-01-16T16:59:01;5.00;99.90
55642;DHT22;41509;53.108;6.100;2023-01-16T17:01:28;5.00;99.90
55642;DHT22;41509;53.108;6.100;2023-01-16T17:03:56;5.00;99.90
55642;DHT22;41509;53.108;6.100;2023-01-16T17:06:29;5.00;99.90
55642;DHT22;41509;53.108;6.100;2023-01-16T17:08:55;5.00;99.90
55642;DHT22;41509;53.108;6.100;2023-01-16T17:11:21;5.00;99.90
55642;DHT22;41509;53.108;6.100;2023-01-16T17:13:47;5.00;99.90
55642;DHT22;41509;53.108;6.100;2023-01-16T17:16:17;5.00;99.90
55642;DHT22;41509;53.108;6.100;2023-01-16T17:18:44;5.00;99.90
55642;DHT22;41509;53.108;6.100;2023-01-16T17:21:16;5.00;99.90
55642;DHT22;41509;53.108;6.100;2023-01-16T17:23:43;4.90;99.90
55642;DHT22;41509;53.108;6.100;2023-01-16T17:26:11;5.00;99.90
55642;DHT22;41509;53.108;6.100;2023-01-16T17:28:39;5.00;99.90
55642;DHT22;41509;53.108;6.100;2023-01-16T17:31:25;4.90;99.90
55642;DHT22;41509;53.108;6.100;2023-01-16T17:33:50;4.90;99.90
55642;DHT22;41509;53.108;6.100;2023-01-16T17:36:23;4.90;99.90
55642;DHT22;41509;53.108;6.100;2023-01-16T17:38:49;4.90;99.90
55642;DHT22;41509;53.108;6.100;2023-01-16T17:41:25;4.90;99.90
55642;DHT22;41509;53.108;6.100;2023-01-16T17:43:56;4.90;99.90
55642;DHT22;41509;53.108;6.100;2023-01-16T17:46:41;4.80;99.90
55642;DHT22;41509;53.108;6.100;2023-01-16T17:49:06;4.90;99.90
55642;DHT22;41509;53.108;6.100;2023-01-16T17:51:32;4.80;99.90
55642;DHT22;41509;53.108;6.100;2023-01-16T17:53:59;4.80;99.90
55642;DHT22;41509;53.108;6.100;2023-01-16T17:56:25;4.80;99.90
55642;DHT22;41509;53.108;6.100;2023-01-16T17:58:53;4.80;99.90
55642;DHT22;41509;53.108;6.100;2023-01-16T18:01:23;4.70;99.90
55642;DHT22;41509;53.108;6.100;2023-01-16T18:03:55;4.70;99.90
55642;DHT22;41509;53.108;6.100;2023-01-16T18:06:39;4.70;99.90
55642;DHT22;41509;53.108;6.100;2023-01-16T18:09:06;4.70;99.90
55642;DHT22;41509;53.108;6.100;2023-01-16T18:11:33;4.70;99.90
55642;DHT22;41509;53.108;6.100;2023-01-16T18:14:18;4.70;99.90
55642;DHT22;41509;53.108;6.100;2023-01-16T18:17:02;4.70;99.90
55642;DHT22;41509;53.108;6.100;2023-01-16T18:19:47;4.60;99.90
55642;DHT22;41509;53.108;6.100;2023-01-16T18:22:13;4.70;99.90
55642;DHT22;41509;53.108;6.100;2023-01-16T18:24:40;4.60;99.90
55642;DHT22;41509;53.108;6.100;2023-01-16T18:27:08;4.50;99.90
55642;DHT22;41509;53.108;6.100;2023-01-16T18:29:35;4.50;99.90
55642;DHT22;41509;53.108;6.100;2023-01-16T18:32:01;4.40;99.90
55642;DHT22;41509;53.108;6.100;2023-01-16T18:37:39;4.30;99.90
55642;DHT22;41509;53.108;6.100;2023-01-16T18:40:11;4.20;99.90
55642;DHT22;41509;53.108;6.100;2023-01-16T18:42:56;4.20;99.90
55642;DHT22;41509;53.108;6.100;2023-01-16T18:45:41;4.20;99.90
55642;DHT22;41509;53.108;6.100;2023-01-16T18:48:25;4.10;99.90
55642;DHT22;41509;53.108;6.100;2023-01-16T18:51:15;4.10;99.90
55642;DHT22;41509;53.108;6.100;2023-01-16T18:54:01;4.00;99.90
55642;DHT22;41509;53.108;6.100;2023-01-16T18:56:53;4.00;99.90
55642;DHT22;41509;53.108;6.100;2023-01-16T18:59:37;3.90;99.90
55642;DHT22;41509;53.108;6.100;2023-01-16T19:04:53;3.80;99.90
55642;DHT22;41509;53.108;6.100;2023-01-16T19:07:22;3.80;99.90
55642;DHT22;41509;53.108;6.100;2023-01-16T19:09:51;3.80;99.90
55642;DHT22;41509;53.108;6.100;2023-01-16T19:12:19;3.70;99.90
55642;DHT22;41509;53.108;6.100;2023-01-16T19:14:46;3.70;99.90
55642;DHT22;41509;53.108;6.100;2023-01-16T19:17:12;3.70;99.90
55642;DHT22;41509;53.108;6.100;2023-01-16T19:19:38;3.70;99.90
55642;DHT22;41509;53.108;6.100;2023-01-16T19:22:04;3.60;99.90
55642;DHT22;41509;53.108;6.100;2023-01-16T19:24:29;3.60;99.90